Terminal Aerodrome Forecast
Issued by NWS

Home | Current Version | Previous Version | Text Only | Print | Product List | Glossary On
Versions: 1 2 3 4 5 6 7 8 9 10 11 12 13 14 15 16 17 18 19 20 21 22 23 24 25 26 27 28 29 30 31 32 33 34 35 36 37 38 39 40 41 42 43 44 45 46 47 48 49
000
FTUS45 KPSR 310600 AAA
TAFSDL
TAF AMD
KSDL 310623Z 3106/0106 VRB03KT P6SM SCT020 OVC050
      TEMPO 3106/3108 OVC020
     FM310800 VRB03KT 6SM BR VCSH BKN020 OVC040
     FM311200 VRB03KT 5SM BR OVC030
     FM312000 20004KT P6SM VCSH BKN050
     FM010200 VRB03KT P6SM BKN060=

USA.gov is the U.S. government's official web portal to all federal, state and local government web resources and services.